Latest Weather Observations for Oakey

IDQ60901

Issued at 6:21 pm EST Friday 28 April 2017 (issued every 10 minutes, with the page automatically refreshed every 10 minutes)

About weather observations | Map of Brisbane area stations | Latest observations for Brisbane area | Other Formats
Station Details ID: 041359 Name: OAKEY AERO Lat: -27.40 Lon: 151.74 Height: 405.69 m
Data from the previous 72 hours. | See also: Recent months at Oakey
Date/Time
EST
Temp
°C
App
Temp
°C
Dew
Point
°C
Rel
Hum
%
Delta-T
°C
Wind Press
QNH
hPa
Press
MSL
hPa
Rain since
9am
mm
Dir  Spd
km/h
Gust
km/h
Spd
kts
Gust
kts
28/06:00pm 18.1 15.4 10.5 61 4.1 SSW 15 19 8 10 1018.0 1016.7 0.0
28/05:30pm 18.6 15.2 10.4 59 4.5 S 19 26 10 14 1017.5 1016.2 0.0
28/05:00pm 19.3 15.6 10.0 55 5.1 SSE 20 28 11 15 1017.1 1015.8 0.0
28/04:30pm 19.8 16.1 10.2 54 5.3 SE 20 32 11 17 1016.8 1015.4 0.0
28/04:00pm 20.3 15.8 10.1 52 5.6 SE 24 33 13 18 1016.5 1015.1 0.0
28/03:30pm 21.3 16.6 10.5 50 6.0 SSE 26 32 14 17 1016.2 1014.8 0.0
28/03:00pm 21.1 17.5 10.0 49 6.1 S 19 28 10 15 1016.2 1014.8 0.0
28/02:30pm 21.1 18.0 10.3 50 6.0 S 17 22 9 12 1016.2 1014.8 0.0
28/02:00pm 20.9 18.5 8.5 45 6.6 SW 11 19 6 10 1016.1 1014.7 0.0
28/01:30pm 20.3 18.2 8.3 46 6.4 SW 9 19 5 10 1016.4 1015.0 0.0
28/01:00pm 19.6 18.0 8.6 49 5.8 WSW 7 15 4 8 1016.6 1015.2 0.0
28/12:30pm 18.5 16.9 8.7 53 5.2 WNW 7 13 4 7 1017.1 1015.8 0.0
28/12:00pm 17.6 16.0 8.7 56 4.7 WSW 7 11 4 6 1017.5 1016.2 0.0
28/11:30am 16.0 14.3 8.5 61 3.9 S 7 11 4 6 1018.2 1016.8 0.0
28/11:00am 14.1 11.8 7.4 64 3.4 W 9 15 5 8 1018.7 1017.3 0.0
28/10:30am 12.6 10.1 6.4 66 3.0 W 9 15 5 8 1019.2 1017.9 0.0
28/10:00am 11.5 9.4 6.0 69 2.6 WNW 6 11 3 6 1019.2 1017.9 0.0
28/09:30am 10.9 9.0 6.5 74 2.1 WNW 6 9 3 5 1019.5 1018.2 0.0
28/09:00am 9.5 7.2 5.9 78 1.7 W 7 11 4 6 1019.5 1018.2 0.0
28/08:30am 8.8 5.4 5.9 82 1.4 W 13 17 7 9 1019.3 1018.0 0.0
28/08:00am 7.7 4.4 4.8 82 1.3 WNW 11 17 6 9 1019.1 1017.8 0.0
28/07:30am 6.9 3.2 4.6 85 1.0 WNW 13 17 7 9 1018.7 1017.3 0.0
28/07:00am 5.2 2.9 4.6 96 0.3 NNW 6 7 3 4 1018.3 1016.9 0.0
28/06:30am 3.9 1.1 3.2 95 0.3 NNW 7 9 4 5 1017.9 1016.6 0.0
28/06:00am 3.9 2.4 3.0 94 0.4 CALM 0 0 0 0 1017.8 1016.5 0.0
28/05:30am 4.3 2.9 3.4 94 0.4 CALM 0 4 0 2 1017.4 1016.1 0.0
28/05:00am 4.1 0.9 2.9 92 0.5 NW 9 11 5 6 1017.1 1015.8 0.0
28/04:30am 4.9 1.9 3.9 93 0.4 WNW 9 13 5 7 1016.8 1015.4 0.0
28/04:00am 4.6 1.9 3.9 95 0.3 W 7 11 4 6 1016.6 1015.2 0.0
28/03:30am 4.5 1.4 3.8 95 0.3 NW 9 11 5 6 1016.4 1015.0 0.0
28/03:00am 4.3 1.2 3.6 95 0.3 NNW 9 11 5 6 1016.2 1014.8 0.0
28/02:30am 4.3 0.8 3.4 94 0.4 N 11 13 6 7 1016.3 1014.9 0.0
28/02:00am 4.6 2.0 3.4 92 0.5 NNW 6 7 3 4 1016.5 1015.1 0.0
28/01:30am 5.3 2.9 4.1 92 0.5 N 6 6 3 3 1016.8 1015.4 0.0
28/01:00am 5.3 2.7 4.0 91 0.6 NW 7 9 4 5 1017.2 1015.9 0.0
28/12:30am 5.9 3.2 3.9 87 0.9 WNW 7 9 4 5 1017.8 1016.5 0.0
28/12:00am 6.2 3.2 4.0 86 1.0 WNW 9 11 5 6 1017.9 1016.6 0.0
 
Date/Time
EST
Temp
°C
App
Temp
°C
Dew
Point
°C
Rel
Hum
%
Delta-T
°C
Wind Press
QNH
hPa
Press
MSL
hPa
Rain since
9am
mm
Dir  Spd
km/h
Gust
km/h
Spd
kts
Gust
kts
27/11:30pm 6.4 2.7 4.4 87 0.9 WNW 13 13 7 7 1018.0 1016.7 0.0
27/11:00pm 6.8 3.1 4.6 86 1.0 WNW 13 17 7 9 1018.3 1016.9 0.0
27/10:30pm 6.9 3.6 4.4 84 1.1 W 11 13 6 7 1018.3 1016.9 0.0
27/10:00pm 7.5 3.8 4.5 81 1.3 SW 13 15 7 8 1018.3 1016.9 0.0
27/09:30pm 7.5 4.5 4.3 80 1.4 WSW 9 11 5 6 1018.3 1016.9 0.0
27/09:00pm 8.6 4.9 4.4 75 1.9 WSW 13 17 7 9 1017.9 1016.6 0.0
27/08:30pm 9.5 5.4 4.5 71 2.3 SW 15 19 8 10 1017.8 1016.5 0.0
27/08:00pm 10.5 6.1 4.9 68 2.6 SW 17 22 9 12 1017.8 1016.5 0.0
27/07:30pm 10.9 5.9 4.8 66 2.8 WSW 20 26 11 14 1017.5 1016.2 0.0
27/07:00pm 11.6 6.8 4.8 63 3.2 SW 19 26 10 14 1016.8 1015.4 0.0
27/06:30pm 11.9 7.0 5.1 63 3.2 SW 20 28 11 15 1016.6 1015.2 0.0
27/06:00pm 12.8 7.1 4.8 58 3.8 SW 24 32 13 17 1016.2 1014.8 0.0
27/05:30pm 13.5 8.2 4.9 56 4.1 SW 22 33 12 18 1015.9 1014.5 0.0
27/05:00pm 14.7 9.4 5.2 53 4.6 SW 22 28 12 15 1015.3 1014.0 0.0
27/04:30pm 15.5 9.9 5.4 51 4.9 SW 24 35 13 19 1014.9 1013.6 0.0
27/04:00pm 15.7 9.4 5.6 51 4.9 SW 28 37 15 20 1014.9 1013.6 0.0
27/03:30pm 15.9 8.8 5.5 50 5.1 SW 32 41 17 22 1014.6 1013.2 0.0
27/03:00pm 16.5 9.8 5.5 48 5.4 SW 30 41 16 22 1014.2 1012.8 0.0
27/02:30pm 17.6 11.4 6.2 47 5.7 SW 28 37 15 20 1014.2 1012.8 0.0
27/02:00pm 17.5 11.7 6.4 48 5.6 SW 26 37 14 20 1014.1 1012.7 0.0
27/01:30pm 16.6 10.3 5.9 49 5.3 SW 28 39 15 21 1014.2 1012.8 0.0
27/01:00pm 16.4 10.1 5.7 49 5.3 SW 28 39 15 21 1014.5 1013.1 0.0
27/12:30pm 15.9 10.1 6.3 53 4.8 WSW 26 35 14 19 1014.7 1013.4 0.0
27/12:00pm 15.3 9.1 6.1 54 4.5 WSW 28 37 15 20 1015.3 1014.0 0.0
27/11:30am 15.0 8.6 7.1 59 4.0 WSW 30 41 16 22 1015.8 1014.4 0.0
27/11:00am 14.1 9.3 7.2 63 3.4 WSW 22 32 12 17 1016.3 1014.9 0.0
27/10:30am 13.3 8.7 6.6 64 3.3 WSW 20 30 11 16 1016.8 1015.4 0.0
27/10:00am 12.8 8.8 8.1 73 2.4 W 19 26 10 14 1016.9 1015.6 0.0
27/09:30am 11.7 8.3 7.8 77 1.9 W 15 20 8 11 1016.9 1015.6 0.0
27/09:00am 10.7 6.5 7.4 80 1.6 WSW 19 24 10 13 1016.7 1015.3 12.0
27/08:30am 9.5 5.2 7.1 85 1.2 WSW 19 26 10 14 1016.6 1015.2 12.0
27/08:00am 9.0 5.1 7.1 88 0.9 W 17 20 9 11 1016.3 1014.9 12.0
27/07:30am 8.9 5.4 7.0 88 0.9 W 15 20 8 11 1015.8 1014.4 12.0
27/07:00am 7.9 3.3 6.5 91 0.7 W 20 22 11 12 1015.2 1013.9 12.0
27/06:30am 6.8 3.0 5.9 94 0.4 W 15 19 8 10 1015.2 1013.9 12.0
27/06:00am 6.5 2.9 5.1 91 0.6 WSW 13 15 7 8 1015.0 1013.7 12.0
27/05:30am 6.8 3.3 5.3 90 0.7 W 13 15 7 8 1014.9 1013.6 12.0
27/05:00am 7.3 3.5 5.6 89 0.8 WSW 15 17 8 9 1014.6 1013.2 12.0
27/04:30am 7.5 4.0 5.6 88 0.9 W 13 15 7 8 1014.5 1013.1 12.0
27/04:00am 7.8 4.0 5.9 88 0.9 W 15 17 8 9 1014.4 1013.0 12.0
27/03:30am 8.2 4.5 6.5 89 0.8 W 15 17 8 9 1014.3 1012.9 12.0
27/03:00am 8.7 5.1 6.7 87 0.9 W 15 19 8 10 1014.5 1013.1 12.0
27/02:30am 9.3 4.9 6.7 84 1.2 W 19 24 10 13 1014.7 1013.4 12.0
27/02:00am 9.9 6.0 7.3 84 1.3 W 17 20 9 11 1014.9 1013.6 12.0
27/01:30am 10.1 6.6 7.3 83 1.4 W 15 19 8 10 1014.9 1013.6 12.0
27/01:00am 10.7 7.4 8.1 84 1.3 W 15 17 8 9 1014.8 1013.5 12.0
27/12:30am 11.9 7.9 8.2 78 1.9 WSW 19 24 10 13 1014.8 1013.5 12.0
27/12:00am 12.6 6.7 7.7 72 2.4 SW 28 39 15 21 1014.9 1013.6 12.0
 
Date/Time
EST
Temp
°C
App
Temp
°C
Dew
Point
°C
Rel
Hum
%
Delta-T
°C
Wind Press
QNH
hPa
Press
MSL
hPa
Rain since
9am
mm
Dir  Spd
km/h
Gust
km/h
Spd
kts
Gust
kts
26/11:30pm 13.9 9.4 10.1 78 2.0 WSW 24 33 13 18 1014.6 1013.2 12.0
26/11:00pm 14.6 11.3 11.6 82 1.6 WSW 20 24 11 13 1014.0 1012.6 12.0
26/10:30pm 15.4 12.4 12.7 84 1.5 W 20 24 11 13 1013.8 1012.4 12.0
26/10:00pm 15.2 12.9 13.1 87 1.2 WSW 17 22 9 12 1013.7 1012.3 12.0
26/09:30pm 16.0 12.6 13.7 86 1.3 SW 24 28 13 15 1013.7 1012.3 12.0
26/09:00pm 16.3 14.6 14.7 90 0.9 WSW 17 20 9 11 1013.5 1012.1 12.0
26/08:30pm 17.1 15.6 15.4 90 1.0 W 17 22 9 12 1013.4 1012.0 12.0
26/08:00pm 17.8 16.9 16.8 94 0.6 W 17 20 9 11 1013.1 1011.7 12.0
26/07:30pm 17.9 17.2 17.4 97 0.3 W 17 22 9 12 1012.6 1011.3 12.0
26/07:00pm 17.7 18.2 17.4 98 0.2 WNW 11 15 6 8 1012.2 1010.8 12.0
26/06:30pm 17.5 17.4 16.9 96 0.4 WNW 13 15 7 8 1011.7 1010.3 12.0
26/06:00pm 18.0 17.9 17.0 94 0.6 WNW 13 17 7 9 1011.5 1010.1 12.0
26/05:30pm 18.6 17.5 17.3 92 0.8 WNW 19 24 10 13 1011.4 1010.0 12.0
26/05:00pm 18.6 18.3 17.3 92 0.8 WNW 15 19 8 10 1011.2 1009.8 12.0
26/04:30pm 18.6 17.6 17.6 94 0.6 W 19 20 10 11 1011.1 1009.7 12.0
26/04:00pm 18.1 14.5 17.3 95 0.5 WSW 32 39 17 21 1011.0 1009.6 11.8
26/03:37pm 19.4 16.9 16.2 82 1.9 WNW 24 35 13 19 1010.9 1009.5 6.0
26/03:30pm 20.8 18.7 16.2 75 2.8 NW 22 28 12 15 1010.1 1008.7 1.8
26/03:00pm 21.2 18.5 16.6 75 2.8 WNW 26 33 14 18 1010.5 1009.1 1.8
26/02:30pm 20.5 18.0 17.1 81 2.1 NW 26 33 14 18 1010.5 1009.1 1.8
26/02:00pm 20.7 20.2 17.9 84 1.8 NW 17 22 9 12 1010.9 1009.5 1.4
26/01:30pm 19.7 19.9 17.7 88 1.2 NW 13 17 7 9 1011.3 1009.9 1.4
26/01:00pm 20.1 18.7 16.5 80 2.2 NW 19 24 10 13 1011.7 1010.3 0.6
26/12:30pm 20.8 17.4 15.8 73 3.0 NW 28 37 15 20 1012.2 1010.8 0.6
26/12:00pm 20.9 17.6 16.1 74 2.9 NW 28 37 15 20 1012.5 1011.1 0.6
26/11:30am 20.8 18.3 17.0 79 2.4 NW 26 35 14 19 1013.1 1011.7 0.6
26/11:00am 20.0 17.1 16.0 78 2.4 NNW 26 35 14 19 1013.7 1012.3 0.6
26/10:30am 20.4 18.6 16.0 76 2.7 NW 20 26 11 14 1014.3 1012.9 0.0
26/10:00am 20.4 18.6 16.0 76 2.7 NNW 20 26 11 14 1014.2 1012.8 0.0
26/09:30am 19.6 18.7 15.9 79 2.2 NW 15 19 8 10 1014.7 1013.4 0.0
26/09:00am 19.1 19.6 16.5 85 1.6 W 9 13 5 7 1015.1 1013.8 0.2
26/08:30am 18.6 20.1 15.7 83 1.7 W 2 7 1 4 1015.2 1013.9 0.2
26/08:00am 18.5 19.6 15.7 84 1.7 NE 4 7 2 4 1015.0 1013.7 0.0
26/07:30am 17.4 18.0 15.7 90 1.0 SE 7 9 4 5 1014.6 1013.2 0.0
26/07:00am 16.7 17.1 15.4 92 0.8 ENE 7 9 4 5 1014.4 1013.0 0.0
26/06:30am 16.0 16.3 15.0 94 0.6 ENE 7 9 4 5 1014.3 1012.9 0.0
26/06:00am 15.5 15.5 14.2 92 0.8 ESE 7 7 4 4 1014.2 1012.8 0.0
26/05:30am 16.1 16.3 14.8 92 0.8 SSE 7 9 4 5 1014.1 1012.7 0.0
26/05:00am 15.9 16.1 14.6 92 0.8 ESE 7 9 4 5 1014.0 1012.6 0.0
26/04:30am 16.0 15.9 14.9 93 0.6 SE 9 9 5 5 1014.0 1012.6 0.0
26/04:00am 15.8 16.0 14.8 94 0.6 SSE 7 7 4 4 1013.9 1012.5 0.0
26/03:30am 15.3 15.6 14.5 95 0.5 ESE 6 7 3 4 1014.0 1012.6 0.0
26/03:00am 14.3 14.0 13.3 94 0.6 E 7 9 4 5 1013.9 1012.5 0.0
26/02:30am 13.8 13.3 12.7 93 0.6 ESE 7 9 4 5 1014.2 1012.8 0.0
26/02:00am 13.9 14.7 12.6 92 0.7 CALM 0 0 0 0 1014.4 1013.0 0.0
26/01:30am 14.0 13.5 12.2 89 1.0 ENE 6 7 3 4 1014.5 1013.1 0.0
26/01:00am 14.3 14.1 12.9 91 0.8 ENE 6 9 3 5 1014.4 1013.0 0.0
26/12:30am 14.6 13.6 13.3 92 0.7 NE 11 13 6 7 1014.3 1012.9 0.0
26/12:00am 14.0 12.9 12.0 88 1.1 ENE 9 11 5 6 1014.8 1013.5 0.0
 
Date/Time
EST
Temp
°C
App
Temp
°C
Dew
Point
°C
Rel
Hum
%
Delta-T
°C
Wind Press
QNH
hPa
Press
MSL
hPa
Rain since
9am
mm
Dir  Spd
km/h
Gust
km/h
Spd
kts
Gust
kts
25/11:30pm 14.4 13.3 12.1 86 1.3 NE 9 11 5 6 1015.2 1013.9 0.0
25/11:00pm 14.4 13.2 11.7 84 1.5 ENE 9 13 5 7 1015.3 1014.0 0.0
25/10:30pm 14.9 13.8 11.9 82 1.7 E 9 13 5 7 1015.8 1014.4 0.0
25/10:00pm 15.5 14.0 11.9 79 2.0 E 11 15 6 8 1016.1 1014.7 0.0
25/09:30pm 16.3 14.6 12.5 78 2.1 ENE 13 15 7 8 1016.3 1014.9 0.0
25/09:00pm 16.2 14.9 12.4 78 2.1 ENE 11 13 6 7 1016.4 1015.0 0.0
25/08:30pm 16.4 14.6 12.2 76 2.3 ENE 13 13 7 7 1016.3 1014.9 0.0
25/08:00pm 17.6 16.2 12.3 71 3.0 ENE 11 13 6 7 1016.5 1015.1 0.0
25/07:30pm 17.8 16.0 12.0 69 3.3 NE 13 15 7 8 1016.1 1014.7 0.0
25/07:00pm 19.2 17.1 12.5 65 3.8 NE 15 17 8 9 1015.6 1014.2 0.0
25/06:30pm 19.3 17.5 12.1 63 4.1 NE 13 13 7 7 1015.6 1014.2 0.0

Latest Capital City Observations: Canberra | Sydney | Melbourne | Brisbane | Adelaide | Perth | Hobart | Darwin

Other Formats:

Comma delimited format used in spreadsheet applications
http://www.bom.gov.au/fwo/IDQ60901/IDQ60901.94552.axf

JavaScript Object Notation format (JSON) in row-major order
http://www.bom.gov.au/fwo/IDQ60901/IDQ60901.94552.json